Latest Weather Observations for Wynyard

IDT60801

Issued at 7:03 pm EDT Monday 26 January 2015 (issued every 30 minutes, with the page automatically refreshed every 10 minutes)

About weather observations | Map of weather stations | Latest weather observations for TAS | Other Formats
Station Details ID: 091107 Name: WYNYARD AIRPORT Lat: -41.00 Lon: 145.73 Height: 12.0 m
Data from the previous 72 hours. | See also: Recent months at Wynyard
Date/Time
EDT
Temp
°C
App
Temp
°C
Dew
Point
Rel
Hum
%
Delta-T
°C
Wind Press
QNH
hPa
Press
MSL
hPa
Rain
since 9 am
mm
Dir
 
Spd
km/h
Gust
km/h
Spd
kts
Gust
kts
26/07:00pm 17.5 12.4 4.1 41 6.3 SSW 20 32 11 17 1014.9 1014.9 0.0
26/06:30pm 18.6 12.9 5.1 41 6.5 SW 24 35 13 19 1014.5 1014.5 0.0
26/06:00pm 19.2 14.3 5.3 40 6.8 SW 20 32 11 17 1014.4 1014.4 0.0
26/05:30pm 18.4 13.3 4.2 39 6.7 SSW 20 33 11 18 1014.4 1014.4 0.0
26/05:00pm 19.3 13.9 4.6 38 7.1 SSW 22 33 12 18 1014.4 1014.4 0.0
26/04:30pm 18.6 13.8 5.8 43 6.3 SSW 20 33 11 18 1014.5 1014.5 0.0
26/04:00pm 18.4 14.4 4.9 41 6.5 SSW 15 22 8 12 1014.6 1014.6 0.0
26/03:30pm 19.1 13.8 6.9 45 6.1 SSW 24 33 13 18 1014.7 1014.7 0.0
26/03:00pm 18.6 14.0 6.4 45 6.1 SW 20 35 11 19 1014.6 1014.6 0.0
26/02:30pm 18.5 13.3 5.7 43 6.3 SSW 22 32 12 17 1014.6 1014.6 0.0
26/02:00pm 17.6 11.1 4.9 43 6.1 SSW 28 52 15 28 1014.7 1014.7 0.0
26/01:55pm 18.3 11.8 4.5 40 6.6 SW 28 52 15 28 1014.8 1014.8 0.0
26/01:30pm 18.6 11.9 3.6 37 7.0 SW 28 39 15 21 1015.0 1015.0 0.0
26/01:00pm 18.4 12.2 4.2 39 6.7 SW 26 33 14 18 1015.1 1015.1 0.0
26/12:30pm 18.1 13.3 5.7 44 6.0 SW 20 32 11 17 1015.0 1015.0 0.0
26/12:00pm 17.4 10.8 4.4 42 6.1 SW 28 43 15 23 1015.1 1015.1 0.0
26/11:30am 16.6 10.7 5.9 49 5.2 SW 26 41 14 22 1015.1 1015.1 0.0
26/11:00am 17.7 11.8 7.7 52 5.1 SW 28 41 15 22 1015.3 1015.3 0.0
26/10:30am 15.7 9.1 6.2 53 4.6 SW 30 37 16 20 1015.2 1015.2 0.0
26/10:00am 15.3 10.8 6.8 57 4.2 SW 20 37 11 20 1015.0 1015.0 0.0
26/09:30am 14.2 11.2 7.7 65 3.2 WSW 13 19 7 10 1015.0 1015.0 0.0
26/09:00am 13.4 9.9 8.9 74 2.3 WSW 17 20 9 11 1014.9 1014.9 1.8
26/08:30am 11.9 7.8 8.0 77 1.9 SW 19 24 10 13 1014.5 1014.5 1.8
26/08:00am 10.6 8.1 8.0 84 1.3 WSW 11 15 6 8 1014.1 1014.1 1.8
26/07:30am 9.4 6.5 8.0 91 0.7 WNW 13 15 7 8 1013.6 1013.6 1.8
26/07:00am 7.6 4.4 7.0 96 0.3 WNW 13 13 7 7 1013.3 1013.3 1.8
26/06:30am 5.4 2.2 5.3 99 0.0 WSW 11 13 6 7 1012.9 1012.9 1.8
26/05:30am 5.3 1.4 5.2 99 0.0 W 15 17 8 9 1012.0 1012.0 1.8
26/05:00am 5.2 1.6 5.1 99 0.0 WSW 13 15 7 8 1011.5 1011.5 1.8
26/04:30am 6.6 3.7 6.5 99 0.0 WNW 11 13 6 7 1010.9 1010.9 1.8
26/04:00am 5.1 1.9 5.0 99 0.0 SW 11 13 6 7 1010.9 1010.9 1.8
26/03:30am 6.9 6.2 6.8 99 0.0 CALM 0 7 0 4 1010.7 1010.7 1.8
26/03:00am 7.1 5.1 6.2 94 0.4 N 6 7 3 4 1010.3 1010.3 1.8
26/02:30am 7.1 6.3 6.5 96 0.3 CALM 0 0 0 0 1010.1 1010.1 1.8
26/02:00am 8.4 5.9 6.5 88 0.9 NW 9 13 5 7 1010.0 1010.0 1.8
26/01:30am 8.7 6.3 7.0 89 0.8 NW 9 11 5 6 1009.9 1009.9 1.8
26/01:00am 7.7 5.6 5.7 87 0.9 WNW 6 11 3 6 1009.8 1009.8 1.8
26/12:30am 8.5 6.0 6.5 87 0.9 WSW 9 17 5 9 1009.7 1009.7 1.8
 
Date/Time
EDT
Temp
°C
App
Temp
°C
Dew
Point
Rel
Hum
%
Delta-T
°C
Wind Press
QNH
hPa
Press
MSL
hPa
Rain
since 9 am
mm
Dir
 
Spd
km/h
Gust
km/h
Spd
kts
Gust
kts
25/11:30pm 9.2 5.1 6.3 82 1.3 SW 17 24 9 13 1009.4 1009.4 1.8
25/11:00pm 8.6 5.2 5.9 83 1.2 W 13 17 7 9 1009.5 1009.5 1.8
25/10:30pm 9.2 5.0 5.9 80 1.5 W 17 19 9 10 1009.2 1009.2 1.8
25/10:00pm 9.4 5.2 5.6 77 1.7 W 17 22 9 12 1008.8 1008.8 1.8
25/09:30pm 9.9 5.2 6.1 77 1.8 WSW 20 28 11 15 1008.6 1008.6 1.8
25/09:00pm 10.3 5.7 6.3 76 1.9 WSW 20 28 11 15 1008.0 1008.0 1.8
25/08:30pm 10.5 5.7 7.2 80 1.6 SW 22 33 12 18 1007.6 1007.6 1.8
25/08:00pm 11.9 6.8 7.6 75 2.1 WSW 24 33 13 18 1007.2 1007.2 1.6
25/07:30pm 12.4 7.1 6.9 69 2.6 W 24 32 13 17 1006.4 1006.4 1.6
25/07:00pm 12.2 5.2 5.8 65 3.0 W 32 41 17 22 1006.1 1006.1 1.6
25/06:54pm 12.2 4.1 7.1 71 2.5 WSW 39 61 21 33 1006.0 1006.0 1.6
25/06:30pm 14.3 5.3 6.2 58 3.9 SW 43 61 23 33 1005.4 1005.4 1.6
25/06:02pm 15.2 6.5 6.2 55 4.3 WSW 41 59 22 32 1004.9 1004.9 1.6
25/06:00pm 15.1 6.0 6.1 55 4.3 WSW 43 59 23 32 1004.9 1004.9 1.6
25/05:42pm 15.1 7.6 6.4 56 4.2 WSW 35 54 19 29 1004.8 1004.8 1.6
25/05:30pm 15.3 8.4 7.3 59 4.0 WSW 33 43 18 23 1004.7 1004.7 1.6
25/05:05pm 13.7 5.8 7.7 67 3.0 WSW 39 59 21 32 1004.8 1004.8 1.6
25/05:00pm 14.2 6.8 6.6 60 3.7 WSW 35 52 19 28 1004.6 1004.6 1.6
25/04:48pm 14.6 7.6 6.9 60 3.8 WSW 33 48 18 26 1004.3 1004.3 1.6
25/04:38pm 13.9 7.7 9.3 74 2.3 SW 32 52 17 28 1004.4 1004.4 1.6
25/04:30pm 13.2 7.9 9.8 80 1.7 SW 28 37 15 20 1004.4 1004.4 1.6
25/04:14pm 12.1 4.4 7.0 71 2.4 SW 37 56 20 30 1004.7 1004.7 1.4
25/04:06pm 14.5 7.1 6.6 59 3.8 WSW 35 52 19 28 1004.1 1004.1 1.4
25/04:00pm 15.9 7.5 5.8 51 4.9 W 39 54 21 29 1003.8 1003.8 1.4
25/03:56pm 16.6 9.4 7.5 55 4.6 W 35 54 19 29 1003.8 1003.8 1.4
25/03:30pm 15.9 8.3 7.7 58 4.1 WSW 37 56 20 30 1003.7 1003.7 1.4
25/03:00pm 15.3 8.7 10.1 71 2.7 SW 35 54 19 29 1003.6 1003.6 1.4
25/02:51pm 14.3 8.6 8.3 67 3.0 WSW 28 46 15 25 1003.8 1003.8 1.4
25/02:30pm 12.4 6.0 8.5 77 1.9 SW 32 48 17 26 1004.1 1004.1 1.4
25/02:25pm 13.4 7.2 9.5 77 2.0 SW 32 48 17 26 1004.0 1004.0 1.4
25/02:10pm 10.9 1.1 8.8 87 1.0 SW 50 69 27 37 1004.0 1004.0 1.4
25/02:08pm 11.0 1.2 8.8 86 1.1 SW 50 69 27 37 1004.0 1004.0 1.0
25/02:04pm 11.9 2.6 7.4 74 2.2 WSW 46 67 25 36 1003.6 1003.6 0.8
25/02:00pm 16.0 7.3 5.9 51 4.9 WSW 41 67 22 36 1003.0 1003.0 0.8
25/01:57pm 16.6 8.1 5.3 47 5.4 WSW 39 67 21 36 1003.0 1003.0 0.8
25/01:56pm 17.4 9.3 7.2 51 5.1 WSW 39 50 21 27 1002.9 1002.9 0.8
25/01:46pm 16.1 8.6 6.3 52 4.8 WSW 35 50 19 27 1002.9 1002.9 0.8
25/01:30pm 15.4 7.2 6.4 55 4.4 W 39 59 21 32 1002.8 1002.8 0.8
25/01:00pm 16.3 9.5 7.8 57 4.3 W 33 52 18 28 1002.8 1002.8 0.8
25/12:46pm 15.5 9.0 8.0 61 3.8 WSW 32 52 17 28 1002.8 1002.8 0.8
25/12:30pm 14.2 8.6 8.8 70 2.7 WSW 28 39 15 21 1002.9 1002.9 0.8
25/12:08pm 14.7 7.4 7.3 61 3.6 WSW 35 61 19 33 1002.6 1002.6 0.6
25/12:00pm 14.6 6.9 7.2 61 3.6 SW 37 48 20 26 1002.5 1002.5 0.6
25/11:35am 14.5 7.3 7.8 64 3.3 WSW 35 56 19 30 1002.4 1002.4 0.6
25/11:30am 14.5 8.2 9.7 73 2.5 WSW 33 44 18 24 1002.5 1002.5 0.6
25/11:26am 14.4 8.5 10.4 77 2.1 WSW 32 44 17 24 1002.4 1002.4 0.6
25/11:07am 12.6 5.0 8.9 78 1.9 WSW 39 59 21 32 1002.6 1002.6 0.6
25/11:04am 14.7 7.4 7.0 60 3.8 WSW 35 57 19 31 1002.2 1002.2 0.0
25/11:00am 16.0 9.2 7.0 55 4.5 WSW 32 41 17 22 1002.1 1002.1 0.0
25/10:30am 16.0 9.5 8.0 59 4.0 WSW 32 43 17 23 1002.1 1002.1 0.0
25/10:00am 14.0 7.3 7.5 65 3.2 SW 32 44 17 24 1002.0 1002.0 0.0
25/09:30am 14.6 9.5 9.2 70 2.8 WSW 26 35 14 19 1002.0 1002.0 0.0
25/09:00am 13.4 9.9 10.2 81 1.7 SW 19 26 10 14 1001.9 1001.9 2.4
25/08:30am 13.6 9.7 10.9 84 1.4 WSW 22 33 12 18 1001.7 1001.7 2.2
25/08:00am 12.8 10.0 11.2 90 0.8 SW 17 26 9 14 1000.9 1000.9 2.2
25/07:30am 11.9 9.0 11.1 95 0.4 SW 17 22 9 12 1000.6 1000.6 2.2
25/07:00am 12.1 9.3 11.3 95 0.4 WSW 17 20 9 11 1000.4 1000.4 2.2
25/06:30am 12.4 9.8 12.1 98 0.2 W 17 20 9 11 1000.0 1000.0 2.2
25/06:00am 12.6 10.5 12.3 98 0.2 W 15 22 8 12 999.4 999.4 2.2
25/05:30am 12.8 10.3 12.3 97 0.3 WSW 17 26 9 14 999.2 999.2 1.6
25/05:00am 12.9 10.1 12.7 99 0.1 SW 19 22 10 12 998.5 998.5 0.6
25/04:30am 13.2 10.4 12.6 96 0.3 WSW 19 24 10 13 998.6 998.6 0.4
25/04:00am 14.1 10.1 13.1 94 0.6 WSW 26 33 14 18 998.7 998.7 0.0
25/03:30am 14.2 12.9 13.6 96 0.3 SW 13 15 7 8 998.3 998.3 0.0
25/03:00am 14.7 13.2 13.1 90 0.9 WSW 13 17 7 9 998.7 998.7 0.0
25/02:30am 15.9 13.2 13.6 86 1.3 W 20 30 11 16 999.2 999.2 0.0
25/02:00am 16.9 14.6 14.0 83 1.7 NNW 19 28 10 15 999.6 999.6 0.0
25/01:30am 12.9 12.6 12.7 99 0.1 SSW 6 7 3 4 1000.3 1000.3 0.0
25/01:00am 13.1 12.6 12.8 98 0.2 SW 7 9 4 5 1000.6 1000.6 0.0
25/12:30am 14.0 13.9 13.8 99 0.1 SSW 7 9 4 5 1001.1 1001.1 0.0
25/12:00am 13.5 13.8 13.3 99 0.1 SSW 4 7 2 4 1001.7 1001.7 0.0
 
Date/Time
EDT
Temp
°C
App
Temp
°C
Dew
Point
Rel
Hum
%
Delta-T
°C
Wind Press
QNH
hPa
Press
MSL
hPa
Rain
since 9 am
mm
Dir
 
Spd
km/h
Gust
km/h
Spd
kts
Gust
kts
24/11:30pm 15.1 15.1 13.6 91 0.8 WSW 6 7 3 4 1002.1 1002.1 0.0
24/11:00pm 16.2 15.4 13.9 86 1.3 NW 11 15 6 8 1002.4 1002.4 0.0
24/10:30pm 16.6 15.3 13.7 83 1.6 NNW 13 22 7 12 1002.5 1002.5 0.0
24/10:00pm 16.9 15.6 13.8 82 1.8 NNW 13 20 7 11 1002.5 1002.5 0.0
24/09:30pm 17.0 16.4 13.5 80 2.0 N 9 13 5 7 1002.1 1002.1 0.0
24/09:00pm 17.0 15.4 12.9 77 2.3 NNW 13 17 7 9 1002.0 1002.0 0.0
24/08:30pm 17.3 16.1 12.8 75 2.5 NNW 11 17 6 9 1001.8 1001.8 0.0
24/08:00pm 17.6 14.7 12.9 74 2.6 NW 20 28 11 15 1002.3 1002.3 0.0
24/07:30pm 17.8 14.8 12.7 72 2.8 NNW 20 28 11 15 1002.2 1002.2 0.0
24/07:00pm 17.7 14.2 12.2 70 3.1 NW 22 33 12 18 1002.1 1002.1 0.0
24/06:30pm 18.0 14.5 12.2 69 3.2 NW 22 30 12 16 1001.8 1001.8 0.0
24/06:00pm 18.5 15.3 11.8 65 3.7 NNW 20 32 11 17 1002.0 1002.0 0.0
24/05:30pm 19.1 16.0 11.7 62 4.1 NNW 19 26 10 14 1002.2 1002.2 0.0
24/05:00pm 18.8 15.5 10.9 60 4.3 NNW 19 26 10 14 1002.6 1002.6 0.0
24/04:30pm 18.7 15.2 11.0 61 4.2 NNW 20 28 11 15 1002.8 1002.8 0.0
24/04:00pm 20.3 17.1 11.2 56 5.0 NNW 19 28 10 15 1003.2 1003.2 0.0
24/03:30pm 18.9 15.5 10.7 59 4.4 N 19 30 10 16 1003.5 1003.5 0.0
24/03:00pm 19.4 16.2 11.2 59 4.5 N 19 30 10 16 1003.7 1003.7 0.0
24/02:30pm 20.4 17.2 11.9 58 4.7 N 20 32 11 17 1003.8 1003.8 0.0
24/02:00pm 18.8 15.4 11.1 61 4.2 N 20 28 11 15 1003.9 1003.9 0.0
24/01:30pm 19.1 15.5 11.9 63 4.0 NNE 22 30 12 16 1004.4 1004.4 0.0
24/01:00pm 17.6 13.6 10.5 63 3.8 NNE 22 30 12 16 1004.7 1004.7 0.0
24/12:30pm 18.2 14.9 11.5 65 3.7 NNE 20 32 11 17 1004.9 1004.9 0.0
24/12:00pm 17.7 13.7 10.3 62 4.0 NNE 22 30 12 16 1005.4 1005.4 0.0
24/11:30am 18.8 14.7 8.7 52 5.3 WNW 20 28 11 15 1005.5 1005.5 0.0
24/11:00am 17.8 13.8 8.9 56 4.6 NW 20 30 11 16 1005.9 1005.9 0.0
24/10:30am 16.9 14.8 9.8 63 3.7 NNE 11 15 6 8 1006.0 1006.0 0.0
24/10:00am 16.3 13.9 9.9 66 3.4 W 13 20 7 11 1006.2 1006.2 0.0
24/09:30am 15.5 13.1 8.7 64 3.5 WSW 11 17 6 9 1006.5 1006.5 0.0
24/09:00am 13.3 11.3 8.8 74 2.3 WSW 9 9 5 5 1006.7 1006.7 0.0
24/08:30am 12.3 10.1 7.8 74 2.2 WNW 9 11 5 6 1006.7 1006.7 0.0
24/08:00am 10.4 7.8 7.8 84 1.3 W 11 13 6 7 1006.5 1006.5 0.0
24/07:30am 8.5 6.2 7.3 92 0.6 W 9 11 5 6 1006.3 1006.3 0.0
24/07:00am 6.5 4.0 6.4 99 0.0 W 9 9 5 5 1006.2 1006.2 0.0
24/06:30am 5.2 1.9 4.8 97 0.2 WSW 11 13 6 7 1006.2 1006.2 0.0
24/06:00am 6.2 3.1 5.6 96 0.3 WNW 11 13 6 7 1006.3 1006.3 0.0
24/05:30am 5.5 2.7 5.2 98 0.1 SW 9 11 5 6 1005.9 1005.9 0.0
24/05:00am 5.7 1.7 4.8 94 0.4 W 15 17 8 9 1005.7 1005.7 0.0
24/04:30am 6.4 3.7 5.7 95 0.3 WSW 9 13 5 7 1006.1 1006.1 0.0
24/04:00am 6.3 3.4 4.6 89 0.7 W 9 13 5 7 1005.5 1005.5 0.0
24/03:30am 6.7 4.5 6.4 98 0.1 SW 7 9 4 5 1005.5 1005.5 0.0
24/03:00am 6.3 3.1 5.3 93 0.4 WSW 11 13 6 7 1006.3 1006.3 0.0
24/02:30am 7.5 5.7 5.6 88 0.9 NE 4 7 2 4 1007.0 1007.0 0.0
24/02:00am 8.6 6.0 6.1 84 1.1 SW 9 13 5 7 1006.7 1006.7 0.0
24/01:30am 8.8 6.6 6.1 83 1.2 SSW 7 11 4 6 1006.9 1006.9 0.0
24/01:00am 8.4 5.0 6.0 85 1.1 WSW 13 17 7 9 1007.1 1007.1 0.0
24/12:30am 11.3 7.6 6.4 72 2.3 WNW 15 19 8 10 1007.3 1007.3 0.0
24/12:00am 9.8 5.7 6.0 77 1.8 W 17 20 9 11 1007.2 1007.2 0.0
 
Date/Time
EDT
Temp
°C
App
Temp
°C
Dew
Point
Rel
Hum
%
Delta-T
°C
Wind Press
QNH
hPa
Press
MSL
hPa
Rain
since 9 am
mm
Dir
 
Spd
km/h
Gust
km/h
Spd
kts
Gust
kts
23/11:30pm 10.5 6.3 5.7 72 2.2 W 17 17 9 9 1007.4 1007.4 0.0
23/11:00pm 10.6 7.1 5.4 70 2.4 W 13 17 7 9 1007.5 1007.5 0.0
23/10:30pm 11.9 8.4 5.3 64 3.0 WSW 13 15 7 8 1007.5 1007.5 0.0
23/10:00pm 13.0 10.6 5.2 59 3.6 SW 7 9 4 5 1007.5 1007.5 0.0
23/09:30pm 13.5 9.6 5.4 58 3.8 SW 15 19 8 10 1007.3 1007.3 0.0
23/09:00pm 15.1 10.9 5.9 54 4.4 SW 17 24 9 13 1006.9 1006.9 0.0
23/08:30pm 16.1 12.1 6.5 53 4.7 SW 17 24 9 13 1006.4 1006.4 0.0
23/08:00pm 17.2 11.9 7.0 51 5.1 SW 24 33 13 18 1006.2 1006.2 0.0
23/07:30pm 18.2 12.6 7.3 49 5.5 SW 26 35 14 19 1005.7 1005.7 0.0

Other Formats:

Comma delimited format used in spreadsheet applications
http://www.bom.gov.au/fwo/IDT60801/IDT60801.95957.axf

JavaScript Object Notation format (JSON) in row-major order
http://www.bom.gov.au/fwo/IDT60801/IDT60801.95957.json